createdAt,value
2023-04-12T00:01:09.859Z,95086.84
2023-04-12T00:03:39.357Z,95080.44
2023-04-12T00:06:10.384Z,95082.41
2023-04-12T00:08:38.751Z,95074.44
2023-04-12T00:11:06.931Z,95073.13
2023-04-12T00:13:34.761Z,95073.19
2023-04-12T00:16:02.510Z,95062.78
2023-04-12T00:18:30.264Z,95058.81
2023-04-12T00:20:58.047Z,95053.28
2023-04-12T00:23:27.235Z,95041.00
2023-04-12T00:25:54.890Z,95050.66
2023-04-12T00:28:22.594Z,95051.22
2023-04-12T00:30:50.244Z,95047.22
2023-04-12T00:33:17.966Z,95039.19
2023-04-12T00:35:45.734Z,95035.44
2023-04-12T00:38:14.500Z,95036.59
2023-04-12T00:40:43.681Z,95037.38
2023-04-12T00:43:15.518Z,95039.06
2023-04-12T00:45:44.460Z,95035.63
2023-04-12T00:48:12.837Z,95029.94
2023-04-12T00:50:44.643Z,95029.78
2023-04-12T00:53:13.460Z,95024.16
2023-04-12T00:55:44.904Z,95022.84
2023-04-12T00:58:12.649Z,95021.78
2023-04-12T01:00:40.540Z,95016.44
2023-04-12T01:03:08.913Z,95012.44
2023-04-12T01:05:44.389Z,95001.72
2023-04-12T01:08:20.128Z,95007.91
2023-04-12T01:11:07.779Z,94999.56
2023-04-12T01:13:39.648Z,95000.13
2023-04-12T01:16:13.419Z,94999.63
2023-04-12T01:18:45.822Z,94990.03
2023-04-12T01:21:18.068Z,94996.25
2023-04-12T01:23:58.985Z,94991.47
2023-04-12T01:26:41.238Z,94989.13
2023-04-12T01:29:13.058Z,94991.84
2023-04-12T01:31:42.979Z,94988.66
2023-04-12T01:34:12.935Z,94992.94
2023-04-12T01:36:42.135Z,94983.56
2023-04-12T01:39:10.504Z,94986.88
2023-04-12T01:41:41.846Z,94981.25
2023-04-12T01:44:14.020Z,94987.44
2023-04-12T01:46:42.597Z,94978.69
2023-04-12T01:49:12.863Z,94983.88
2023-04-12T01:51:50.833Z,94978.06
2023-04-12T01:54:22.923Z,94979.75
2023-04-12T01:56:57.801Z,94976.06
2023-04-12T01:59:31.258Z,94975.31
2023-04-12T02:01:59.586Z,94968.94
2023-04-12T02:04:28.814Z,94973.00
2023-04-12T02:06:57.088Z,94969.84
2023-04-12T02:09:24.881Z,94970.13
2023-04-12T02:11:52.545Z,94961.53
2023-04-12T02:14:20.197Z,94961.84
2023-04-12T02:16:50.646Z,94961.84
2023-04-12T02:19:19.653Z,94970.72
2023-04-12T02:21:48.089Z,94972.34
2023-04-12T02:24:17.415Z,94964.81
2023-04-12T02:26:45.062Z,94968.31
2023-04-12T02:29:13.474Z,94968.84
2023-04-12T02:31:41.489Z,94965.34
2023-04-12T02:34:10.768Z,94966.16
2023-04-12T02:36:38.485Z,94965.34
2023-04-12T02:39:06.541Z,94963.75
2023-04-12T02:41:34.337Z,94969.69
2023-04-12T02:44:02.044Z,94965.66
2023-04-12T02:46:30.075Z,94976.13
2023-04-12T02:48:58.126Z,94982.03
2023-04-12T02:51:28.031Z,94978.28
2023-04-12T02:53:56.004Z,94975.31
2023-04-12T02:56:24.729Z,94985.84
2023-04-12T02:58:52.503Z,94972.13
2023-04-12T03:01:20.433Z,94969.16
2023-04-12T03:03:48.271Z,94967.53
2023-04-12T03:06:16.175Z,94964.31
2023-04-12T03:08:45.227Z,94964.56
2023-04-12T03:11:12.885Z,94962.91
2023-04-12T03:13:40.580Z,94966.44
2023-04-12T03:16:23.357Z,94954.84
2023-04-12T03:18:51.707Z,94952.94
2023-04-12T03:21:19.558Z,94955.06
2023-04-12T03:23:48.626Z,94946.75
2023-04-12T03:26:16.315Z,94943.00
2023-04-12T03:28:45.795Z,94940.28
2023-04-12T03:31:13.625Z,94930.59
2023-04-12T03:33:41.582Z,94926.25
2023-04-12T03:36:10.711Z,94928.69
2023-04-12T03:38:38.456Z,94937.28
2023-04-12T03:41:08.267Z,94927.03
2023-04-12T03:43:37.482Z,94929.72
2023-04-12T03:46:05.742Z,94932.16
2023-04-12T03:48:39.009Z,94934.31
2023-04-12T03:51:12.123Z,94935.94
2023-04-12T03:53:40.166Z,94938.09
2023-04-12T03:56:10.141Z,94919.00
2023-04-12T03:58:37.997Z,94932.44
2023-04-12T04:01:06.798Z,94920.63
2023-04-12T04:03:35.596Z,94914.69
2023-04-12T04:06:03.549Z,94918.19
2023-04-12T04:08:32.606Z,94907.72
2023-04-12T04:11:00.850Z,94906.63
2023-04-12T04:13:30.201Z,94902.34
2023-04-12T04:16:01.292Z,94891.59
2023-04-12T04:18:29.019Z,94882.16
2023-04-12T04:20:56.902Z,94878.66
2023-04-12T04:23:24.636Z,94881.09
2023-04-12T04:25:54.350Z,94878.16
2023-04-12T04:28:22.221Z,94889.16
2023-04-12T04:30:51.689Z,94880.28
2023-04-12T04:33:19.993Z,94876.25
2023-04-12T04:35:47.831Z,94887.25
2023-04-12T04:38:16.141Z,94880.25
2023-04-12T04:43:26.301Z,94873.25
2023-04-12T04:45:56.926Z,94881.34
2023-04-12T04:48:24.792Z,94877.06
2023-04-12T04:50:52.952Z,94881.34
2023-04-12T04:53:23.074Z,94885.66
2023-04-12T04:55:50.856Z,94873.84
2023-04-12T04:58:18.585Z,94866.03
2023-04-12T05:00:46.433Z,94864.16
2023-04-12T05:03:16.186Z,94848.84
2023-04-12T05:05:44.101Z,94855.03
2023-04-12T05:08:11.884Z,94851.53
2023-04-12T05:10:39.659Z,94848.59
2023-04-12T05:13:07.409Z,94841.06
2023-04-12T05:15:35.226Z,94843.50
2023-04-12T05:18:03.275Z,94845.13
2023-04-12T05:20:32.906Z,94842.69
2023-04-12T05:23:01.234Z,94839.22
2023-04-12T05:25:28.982Z,94833.84
2023-04-12T05:27:56.858Z,94822.81
2023-04-12T05:30:24.889Z,94816.94
2023-04-12T05:32:52.816Z,94816.09
2023-04-12T05:35:20.857Z,94806.97
2023-04-12T05:37:50.061Z,94806.69
2023-04-12T05:40:17.870Z,94804.84
2023-04-12T05:42:45.662Z,94794.09
2023-04-12T05:45:13.366Z,94790.31
2023-04-12T05:47:41.044Z,94799.47
2023-04-12T05:50:09.500Z,94790.34
2023-04-12T05:52:38.141Z,94789.22
2023-04-12T05:55:07.829Z,94782.00
2023-04-12T05:57:35.578Z,94783.88
2023-04-12T06:00:06.952Z,94781.19
2023-04-12T06:02:34.928Z,94772.56
2023-04-12T06:05:03.776Z,94769.34
2023-04-12T06:07:31.825Z,94766.09
2023-04-12T06:09:59.489Z,94771.22
2023-04-12T06:12:28.551Z,94767.47
2023-04-12T06:14:56.871Z,94759.13
2023-04-12T06:17:24.718Z,94756.72
2023-04-12T06:19:52.688Z,94761.25
2023-04-12T06:22:20.528Z,94755.59
2023-04-12T06:24:48.292Z,94754.53
2023-04-12T06:27:16.281Z,94748.59
2023-04-12T06:29:45.560Z,94742.66
2023-04-12T06:32:13.522Z,94750.47
2023-04-12T06:34:41.571Z,94734.53
2023-04-12T06:37:09.307Z,94733.19
2023-04-12T06:39:37.144Z,94737.44
2023-04-12T06:42:05.141Z,94726.66
2023-04-12T06:44:33.427Z,94719.84
2023-04-12T06:47:02.611Z,94718.47
2023-04-12T06:49:30.487Z,94709.81
2023-04-12T06:51:58.335Z,94712.13
2023-04-12T06:54:26.520Z,94712.94
2023-04-12T06:56:54.265Z,94708.25
2023-04-12T06:59:21.989Z,94703.91
2023-04-12T07:01:49.727Z,94695.25
2023-04-12T07:04:18.819Z,94697.41
2023-04-12T07:06:46.596Z,94701.94
2023-04-12T07:09:14.392Z,94698.66
2023-04-12T07:11:42.215Z,94691.63
2023-04-12T07:14:10.057Z,94688.38
2023-04-12T07:16:38.008Z,94691.34
2023-04-12T07:19:05.794Z,94690.22
2023-04-12T07:21:35.007Z,94688.03
2023-04-12T07:24:02.836Z,94700.94
2023-04-12T07:26:31.415Z,94693.34
2023-04-12T07:28:59.500Z,94690.66
2023-04-12T07:31:30.443Z,94685.50
2023-04-12T07:33:58.313Z,94680.22
2023-04-12T07:36:27.431Z,94686.25
2023-04-12T07:38:57.042Z,94679.66
2023-04-12T07:41:25.047Z,94666.19
2023-04-12T07:43:52.741Z,94664.47
2023-04-12T07:46:21.035Z,94674.97
2023-04-12T07:48:48.862Z,94667.09
2023-04-12T07:51:16.674Z,94663.66
2023-04-12T07:53:48.209Z,94651.72
2023-04-12T07:56:17.289Z,94643.75
2023-04-12T07:58:45.036Z,94650.13
2023-04-12T08:01:13.231Z,94645.22
2023-04-12T08:03:41.116Z,94634.28
2023-04-12T08:06:10.292Z,94637.03
2023-04-12T08:08:38.169Z,94635.34
2023-04-12T08:11:06.601Z,94636.69
2023-04-12T08:13:35.963Z,94644.06
2023-04-12T08:16:03.800Z,94635.88
2023-04-12T08:18:31.548Z,94626.63
2023-04-12T08:20:59.507Z,94628.44
2023-04-12T08:23:27.303Z,94623.53
2023-04-12T08:26:03.085Z,94611.91
2023-04-12T08:28:31.091Z,94616.22
2023-04-12T08:31:00.502Z,94605.88
2023-04-12T08:33:28.508Z,94602.56
2023-04-12T08:35:56.701Z,94594.84
2023-04-12T08:38:37.142Z,94593.38
2023-04-12T08:41:09.695Z,94577.59
2023-04-12T08:43:39.266Z,94579.69
2023-04-12T08:46:08.878Z,94572.69
2023-04-12T08:48:37.888Z,94567.03
2023-04-12T08:51:07.305Z,94566.22
2023-04-12T08:53:35.119Z,94553.91
2023-04-12T08:56:03.372Z,94541.28
2023-04-12T08:58:32.301Z,94531.34
2023-04-12T09:01:01.729Z,94541.25
2023-04-12T09:03:33.702Z,94529.63
2023-04-12T09:06:04.075Z,94524.88
2023-04-12T09:08:31.819Z,94528.72
2023-04-12T09:10:59.606Z,94519.88
2023-04-12T09:13:35.419Z,94511.44
2023-04-12T09:16:03.192Z,94506.81
2023-04-12T09:18:32.291Z,94512.59
2023-04-12T09:21:11.823Z,94508.97
2023-04-12T09:23:39.659Z,94506.91
2023-04-12T09:26:08.230Z,94503.09
2023-04-12T09:28:36.151Z,94502.06
2023-04-12T09:31:04.609Z,94499.16
2023-04-12T09:33:37.746Z,94491.03
2023-04-12T09:36:09.326Z,94483.34
2023-04-12T09:38:39.404Z,94476.19
2023-04-12T09:41:20.919Z,94471.06
2023-04-12T09:43:50.324Z,94469.84
2023-04-12T09:46:18.217Z,94447.00
2023-04-12T09:48:52.609Z,94445.41
2023-04-12T09:51:29.124Z,94446.69
2023-04-12T09:54:01.008Z,94430.88
2023-04-12T09:56:30.672Z,94416.81
2023-04-12T09:59:02.659Z,94420.97
2023-04-12T10:01:34.817Z,94420.13
2023-04-12T10:04:05.173Z,94417.75
2023-04-12T10:06:34.360Z,94402.19
2023-04-12T10:09:04.971Z,94398.00
2023-04-12T10:11:33.879Z,94410.78
2023-04-12T10:14:03.286Z,94405.84
2023-04-12T10:16:32.034Z,94386.19
2023-04-12T10:19:02.718Z,94396.34
2023-04-12T10:21:32.259Z,94388.03
2023-04-12T10:24:00.565Z,94395.94
2023-04-12T10:26:28.871Z,94375.63
2023-04-12T10:29:23.907Z,94371.22
2023-04-12T10:31:51.860Z,94366.00
2023-04-12T10:34:19.676Z,94359.28
2023-04-12T10:36:56.165Z,94336.50
2023-04-12T10:39:41.334Z,94352.78
2023-04-12T10:42:19.717Z,94353.47
2023-04-12T10:44:48.259Z,94358.81
2023-04-12T10:47:16.277Z,94352.06
2023-04-12T10:50:24.632Z,94326.25
2023-04-12T10:53:25.882Z,94322.16
2023-04-12T10:55:54.043Z,94323.06
2023-04-12T10:58:59.426Z,94313.47
2023-04-12T11:01:28.381Z,94324.28
2023-04-12T11:04:13.945Z,94325.00
2023-04-12T11:06:59.580Z,94320.94
2023-04-12T11:09:29.323Z,94324.09
2023-04-12T11:12:13.208Z,94314.53
2023-04-12T11:14:46.562Z,94301.88
2023-04-12T11:17:24.741Z,94298.72
2023-04-12T11:19:55.969Z,94299.50
2023-04-12T11:22:28.072Z,94288.13
2023-04-12T11:24:57.834Z,94291.06
2023-04-12T11:27:27.422Z,94293.84
2023-04-12T11:29:56.587Z,94286.06
2023-04-12T11:32:26.445Z,94293.31
2023-04-12T11:34:56.124Z,94284.38
2023-04-12T11:37:27.052Z,94285.72
2023-04-12T11:39:57.947Z,94267.22
2023-04-12T11:42:27.000Z,94265.50
2023-04-12T11:44:59.754Z,94265.78
2023-04-12T11:47:28.493Z,94249.66
2023-04-12T11:49:58.192Z,94258.00
2023-04-12T11:52:31.490Z,94256.56
2023-04-12T11:55:02.158Z,94249.84
2023-04-12T11:57:31.000Z,94261.53
2023-04-12T12:00:00.373Z,94253.88
2023-04-12T12:02:41.063Z,94251.91
2023-04-12T12:05:14.869Z,94265.75
2023-04-12T12:07:44.500Z,94248.63
2023-04-12T12:10:18.515Z,94260.78
2023-04-12T12:12:52.121Z,94259.69
2023-04-12T12:15:19.920Z,94267.44
2023-04-12T12:17:51.716Z,94259.25
2023-04-12T12:20:24.078Z,94256.84
2023-04-12T12:23:00.046Z,94264.50
2023-04-12T12:25:30.178Z,94229.38
2023-04-12T12:27:59.221Z,94246.31
2023-04-12T12:30:27.153Z,94250.69
2023-04-12T12:32:54.931Z,94244.13
2023-04-12T12:35:22.793Z,94245.25
2023-04-12T12:37:52.342Z,94240.78
2023-04-12T12:40:31.547Z,94246.34
2023-04-12T12:42:59.456Z,94246.59
2023-04-12T12:45:29.833Z,94222.84
2023-04-12T12:48:00.473Z,94226.94
2023-04-12T12:50:30.300Z,94220.38
2023-04-12T12:53:00.522Z,94221.97
2023-04-12T12:55:30.943Z,94228.59
2023-04-12T13:00:31.533Z,94222.69
2023-04-12T13:02:59.799Z,94216.47
2023-04-12T13:05:28.002Z,94213.22
2023-04-12T13:07:55.832Z,94214.00
2023-04-12T13:10:23.874Z,94207.97
2023-04-12T13:12:52.984Z,94210.72
2023-04-12T13:15:23.875Z,94203.81
2023-04-12T13:17:53.319Z,94208.44
2023-04-12T13:20:21.400Z,94214.25
2023-04-12T13:22:49.228Z,94200.84
2023-04-12T13:25:16.913Z,94200.50
2023-04-12T13:27:44.624Z,94200.41
2023-04-12T13:30:14.171Z,94202.44
2023-04-12T13:32:41.959Z,94196.94
2023-04-12T13:35:10.086Z,94200.50
2023-04-12T13:37:38.007Z,94189.94
2023-04-12T13:40:06.920Z,94178.47
2023-04-12T13:42:34.692Z,94184.47
2023-04-12T13:45:02.529Z,94189.00
2023-04-12T13:47:31.807Z,94200.44
2023-04-12T13:49:59.537Z,94202.16
2023-04-12T13:52:27.253Z,94195.50
2023-04-12T13:54:55.280Z,94204.84
2023-04-12T13:57:22.996Z,94214.50
2023-04-12T13:59:50.795Z,94211.22
2023-04-12T14:02:18.672Z,94205.41
2023-04-12T14:04:53.419Z,94189.59
2023-04-12T14:07:21.604Z,94182.50
2023-04-12T14:09:49.502Z,94171.97
2023-04-12T14:12:17.329Z,94170.31
2023-04-12T14:14:45.118Z,94169.59
2023-04-12T14:17:12.893Z,94163.56
2023-04-12T14:19:40.886Z,94164.47
2023-04-12T14:22:09.891Z,94166.50
2023-04-12T14:24:37.787Z,94164.25
2023-04-12T14:27:05.668Z,94155.72
2023-04-12T14:29:33.483Z,94148.06
2023-04-12T14:32:01.192Z,94145.94
2023-04-12T14:34:28.903Z,94149.56
2023-04-12T14:36:56.899Z,94132.69
2023-04-12T14:39:28.806Z,94132.16
2023-04-12T14:41:56.904Z,94132.84
2023-04-12T14:44:26.249Z,94132.22
2023-04-12T14:46:54.310Z,94125.47
2023-04-12T14:49:22.074Z,94116.06
2023-04-12T14:51:49.770Z,94112.53
2023-04-12T14:54:17.572Z,94120.31
2023-04-12T14:56:52.151Z,94119.94
2023-04-12T14:59:21.637Z,94111.38
2023-04-12T15:01:49.670Z,94115.75
2023-04-12T15:04:17.623Z,94115.66
2023-04-12T15:06:45.420Z,94126.91
2023-04-12T15:09:15.667Z,94119.91
2023-04-12T15:11:47.231Z,94126.19
2023-04-12T15:14:19.830Z,94136.16
2023-04-12T15:16:49.253Z,94127.53
2023-04-12T15:19:20.701Z,94134.38
2023-04-12T15:21:51.090Z,94135.59
2023-04-12T15:24:18.891Z,94138.00
2023-04-12T15:26:48.623Z,94125.97
2023-04-12T15:29:18.596Z,94121.22
2023-04-12T15:31:46.993Z,94124.41
2023-04-12T15:34:15.250Z,94120.31
2023-04-12T15:36:43.644Z,94119.53
2023-04-12T15:39:12.468Z,94110.28
2023-04-12T15:41:42.226Z,94107.22
2023-04-12T15:44:11.900Z,94111.03
2023-04-12T15:46:41.420Z,94112.63
2023-04-12T15:49:09.713Z,94098.44
2023-04-12T15:51:38.287Z,94099.63
2023-04-12T15:54:06.547Z,94102.69
2023-04-12T15:56:35.116Z,94099.03
2023-04-12T15:59:03.135Z,94104.59
2023-04-12T16:01:31.024Z,94100.78
2023-04-12T16:04:00.320Z,94103.38
2023-04-12T16:06:30.410Z,94112.25
2023-04-12T16:08:59.118Z,94105.09
2023-04-12T16:11:27.646Z,94099.31
2023-04-12T16:13:58.819Z,94103.88
2023-04-12T16:16:26.630Z,94096.72
2023-04-12T16:18:55.737Z,94093.38
2023-04-12T16:21:26.490Z,94092.91
2023-04-12T16:23:54.423Z,94087.25
2023-04-12T16:26:22.827Z,94092.63
2023-04-12T16:28:53.107Z,94090.25
2023-04-12T16:31:21.764Z,94095.03
2023-04-12T16:33:50.085Z,94099.44
2023-04-12T16:36:18.138Z,94104.53
2023-04-12T16:38:47.362Z,94110.03
2023-04-12T16:41:17.133Z,94100.47
2023-04-12T16:43:45.535Z,94091.03
2023-04-12T16:46:13.902Z,94088.88
2023-04-12T16:48:42.186Z,94086.38
2023-04-12T16:51:09.941Z,94084.91
2023-04-12T16:53:37.827Z,94074.22
2023-04-12T16:56:07.497Z,94075.91
2023-04-12T16:58:35.342Z,94074.31
2023-04-12T17:01:03.205Z,94072.72
2023-04-12T17:03:30.981Z,94075.44
2023-04-12T17:05:58.960Z,94073.94
2023-04-12T17:08:26.714Z,94080.66
2023-04-12T17:10:55.315Z,94080.09
2023-04-12T17:15:52.068Z,94075.31
2023-04-12T17:18:19.793Z,94078.06
2023-04-12T17:20:47.684Z,94069.06
2023-04-12T17:23:16.861Z,94077.94
2023-04-12T17:25:44.797Z,94079.16
2023-04-12T17:28:12.980Z,94069.97
2023-04-12T17:30:41.059Z,94083.47
2023-04-12T17:33:10.104Z,94070.53
2023-04-12T17:35:37.853Z,94072.34
2023-04-12T17:38:05.554Z,94069.75
2023-04-12T17:40:33.281Z,94073.69
2023-04-12T17:43:01.002Z,94072.09
2023-04-12T17:45:28.985Z,94079.47
2023-04-12T17:47:56.800Z,94074.03
2023-04-12T17:50:26.345Z,94072.75
2023-04-12T17:52:55.342Z,94072.66
2023-04-12T17:55:26.113Z,94077.31
2023-04-12T17:57:54.046Z,94077.41
2023-04-12T18:00:23.634Z,94088.75
2023-04-12T18:02:51.451Z,94073.66
2023-04-12T18:05:19.542Z,94080.91
2023-04-12T18:07:49.757Z,94084.41
2023-04-12T18:10:21.183Z,94099.94
2023-04-12T18:12:49.318Z,94093.16
2023-04-12T18:15:18.152Z,94104.78
2023-04-12T18:17:45.930Z,94119.00
2023-04-12T18:20:13.904Z,94124.72
2023-04-12T18:22:42.229Z,94135.31
2023-04-12T18:25:12.668Z,94150.78
2023-04-12T18:27:40.587Z,94162.13
2023-04-12T18:30:09.388Z,94169.75
2023-04-12T18:32:37.231Z,94186.00
2023-04-12T18:35:05.274Z,94195.50
2023-04-12T18:37:32.968Z,94202.34
2023-04-12T18:40:00.685Z,94204.03
2023-04-12T18:42:29.827Z,94204.16
2023-04-12T18:44:58.223Z,94225.16
2023-04-12T18:47:27.118Z,94223.72
2023-04-12T18:49:55.004Z,94239.16
2023-04-12T18:52:22.798Z,94247.78
2023-04-12T18:54:50.648Z,94246.81
2023-04-12T18:57:18.536Z,94255.53
2023-04-12T18:59:48.881Z,94262.06
2023-04-12T19:02:18.192Z,94259.19
2023-04-12T19:04:46.113Z,94253.91
2023-04-12T19:07:13.805Z,94261.72
2023-04-12T19:09:42.038Z,94260.75
2023-04-12T19:12:09.824Z,94260.75
2023-04-12T19:14:37.612Z,94267.38
2023-04-12T19:17:07.112Z,94278.50
2023-04-12T19:19:34.854Z,94266.22
2023-04-12T19:22:02.684Z,94268.44
2023-04-12T19:24:30.440Z,94262.34
2023-04-12T19:26:58.204Z,94265.66
2023-04-12T19:29:27.591Z,94268.97
2023-04-12T19:31:55.308Z,94262.91
2023-04-12T19:34:24.561Z,94268.31
2023-04-12T19:36:52.246Z,94271.00
2023-04-12T19:39:20.392Z,94274.03
2023-04-12T19:41:49.139Z,94263.50
2023-04-12T19:44:16.908Z,94265.41
2023-04-12T19:46:44.599Z,94265.41
2023-04-12T19:49:12.273Z,94273.22
2023-04-12T19:51:41.378Z,94279.75
2023-04-12T19:54:09.938Z,94278.75
2023-04-12T19:56:37.711Z,94285.25
2023-04-12T19:59:06.494Z,94290.66
2023-04-12T20:01:35.259Z,94294.19
2023-04-12T20:04:05.559Z,94296.69
2023-04-12T20:06:33.246Z,94291.84
2023-04-12T20:09:02.364Z,94292.50
2023-04-12T20:11:30.644Z,94293.88
2023-04-12T20:13:58.722Z,94289.28
2023-04-12T20:16:26.531Z,94293.09
2023-04-12T20:18:57.591Z,94293.09
2023-04-12T20:21:25.862Z,94293.69
2023-04-12T20:23:53.500Z,94297.31
2023-04-12T20:26:22.966Z,94292.19
2023-04-12T20:28:50.832Z,94292.50
2023-04-12T20:31:19.408Z,94297.09
2023-04-12T20:33:47.194Z,94299.81
2023-04-12T20:36:15.870Z,94293.94
2023-04-12T20:38:43.724Z,94302.50
2023-04-12T20:41:11.695Z,94298.53
2023-04-12T20:43:44.951Z,94294.53
2023-04-12T20:46:15.599Z,94295.84
2023-04-12T20:48:43.462Z,94299.50
2023-04-12T20:51:13.666Z,94302.22
2023-04-12T20:53:43.625Z,94306.25
2023-04-12T20:56:11.283Z,94310.25
2023-04-12T20:58:39.001Z,94306.75
2023-04-12T21:01:14.527Z,94324.38
2023-04-12T21:03:43.576Z,94339.59
2023-04-12T21:06:11.654Z,94353.44
2023-04-12T21:08:39.852Z,94347.84
2023-04-12T21:11:07.539Z,94360.66
2023-04-12T21:13:35.524Z,94362.66
2023-04-12T21:16:03.816Z,94369.16
2023-04-12T21:18:41.336Z,94367.84
2023-04-12T21:21:09.358Z,94376.75
2023-04-12T21:23:37.019Z,94384.19
2023-04-12T21:26:04.806Z,94386.75
2023-04-12T21:28:32.433Z,94383.75
2023-04-12T21:31:00.164Z,94383.84
2023-04-12T21:33:27.958Z,94396.75
2023-04-12T21:35:57.561Z,94404.09
2023-04-12T21:38:25.980Z,94403.50
2023-04-12T21:40:57.235Z,94406.72
2023-04-12T21:43:24.919Z,94413.09
2023-04-12T21:45:52.650Z,94413.78
2023-04-12T21:48:20.335Z,94418.09
2023-04-12T21:50:48.312Z,94421.09
2023-04-12T21:53:17.670Z,94433.47
2023-04-12T21:55:45.484Z,94428.38
2023-04-12T21:58:13.160Z,94429.38
2023-04-12T22:00:41.677Z,94432.22
2023-04-12T22:03:09.509Z,94432.59
2023-04-12T22:05:39.807Z,94432.44
2023-04-12T22:08:08.337Z,94425.09
2023-04-12T22:10:37.408Z,94430.09
2023-04-12T22:13:05.305Z,94425.38
2023-04-12T22:15:33.136Z,94419.00
2023-04-12T22:18:01.111Z,94404.94
2023-04-12T22:20:29.493Z,94385.25
2023-04-12T22:22:57.267Z,94381.47
2023-04-12T22:25:25.721Z,94389.13
2023-04-12T22:27:57.755Z,94403.72
2023-04-12T22:30:25.918Z,94409.75
2023-04-12T22:32:53.806Z,94410.00
2023-04-12T22:35:22.741Z,94415.09
2023-04-12T22:37:50.737Z,94427.22
2023-04-12T22:40:18.792Z,94425.78
2023-04-12T22:42:47.431Z,94431.94
2023-04-12T22:45:18.185Z,94435.44
2023-04-12T22:47:46.466Z,94427.34
2023-04-12T22:50:14.346Z,94426.91
2023-04-12T22:59:12.198Z,94426.00
2023-04-12T23:01:40.541Z,94419.81
2023-04-12T23:04:09.648Z,94427.88
2023-04-12T23:06:39.060Z,94425.13
2023-04-12T23:09:06.861Z,94425.94
2023-04-12T23:11:35.202Z,94422.72
2023-04-12T23:14:09.897Z,94419.22
2023-04-12T23:16:42.257Z,94423.00
2023-04-12T23:19:09.994Z,94418.41
2023-04-12T23:21:37.713Z,94413.59
2023-04-12T23:24:06.161Z,94396.13
2023-04-12T23:26:34.430Z,94396.63
2023-04-12T23:29:03.529Z,94385.03
2023-04-12T23:31:32.226Z,94383.22
2023-04-12T23:34:06.065Z,94380.53
2023-04-12T23:36:34.578Z,94392.63
2023-04-12T23:39:06.118Z,94403.75
2023-04-12T23:41:33.902Z,94392.13
2023-04-12T23:44:01.783Z,94390.94
2023-04-12T23:46:29.924Z,94387.59
2023-04-12T23:48:57.637Z,94388.47
2023-04-12T23:51:27.261Z,94375.03
2023-04-12T23:53:54.934Z,94389.03
2023-04-12T23:56:22.601Z,94394.72
2023-04-12T23:58:50.254Z,94402.38
